createdAt,value
2022-12-05T00:00:08.365Z,2.60
2022-12-05T00:05:12.112Z,2.60
2022-12-05T00:10:13.961Z,2.60
2022-12-05T00:15:15.803Z,2.50
2022-12-05T00:20:17.829Z,2.50
2022-12-05T00:25:19.584Z,2.50
2022-12-05T00:30:22.157Z,2.50
2022-12-05T00:35:24.516Z,2.60
2022-12-05T00:40:26.385Z,2.60
2022-12-05T00:45:28.265Z,2.60
2022-12-05T00:50:30.066Z,2.60
2022-12-05T00:55:33.771Z,2.60
2022-12-05T01:00:35.522Z,2.60
2022-12-05T01:05:37.760Z,2.60
2022-12-05T01:10:39.568Z,2.60
2022-12-05T01:15:41.283Z,2.70
2022-12-05T01:20:43.901Z,2.70
2022-12-05T01:25:49.126Z,2.60
2022-12-05T01:30:51.021Z,2.60
2022-12-05T01:35:52.883Z,2.60
2022-12-05T01:41:05.034Z,2.60
2022-12-05T01:46:06.935Z,2.70
2022-12-05T01:51:09.101Z,2.60
2022-12-05T01:56:11.734Z,2.60
2022-12-05T02:01:15.307Z,2.60
2022-12-05T02:06:17.505Z,2.60
2022-12-05T02:11:19.919Z,2.60
2022-12-05T02:16:52.574Z,2.60
2022-12-05T02:22:25.275Z,2.60
2022-12-05T02:27:47.284Z,2.60
2022-12-05T02:33:01.667Z,2.60
2022-12-05T02:38:35.881Z,2.60
2022-12-05T02:43:54.930Z,2.70
2022-12-05T02:49:01.558Z,2.70
2022-12-05T02:54:07.823Z,2.70
2022-12-05T02:59:09.664Z,2.60
2022-12-05T03:04:13.687Z,2.60
2022-12-05T03:09:23.816Z,2.70
2022-12-05T03:14:47.315Z,2.60
2022-12-05T03:20:10.380Z,2.70
2022-12-05T03:25:13.913Z,2.70
2022-12-05T03:30:18.991Z,2.70
2022-12-05T03:35:50.257Z,2.50
2022-12-05T03:41:03.967Z,2.50
2022-12-05T03:46:12.637Z,2.50
2022-12-05T03:51:16.706Z,2.50
2022-12-05T03:56:40.526Z,2.60
2022-12-05T04:01:43.658Z,2.50
2022-12-05T04:06:48.592Z,2.60
2022-12-05T04:11:57.163Z,2.50
2022-12-05T04:17:04.606Z,2.50
2022-12-05T04:22:06.920Z,2.40
2022-12-05T04:27:33.243Z,2.50
2022-12-05T04:32:54.722Z,2.50
2022-12-05T04:38:06.834Z,2.50
2022-12-05T04:43:10.821Z,2.50
2022-12-05T04:48:16.165Z,2.50
2022-12-05T04:53:19.487Z,2.50
2022-12-05T04:58:23.634Z,2.60
2022-12-05T05:03:28.011Z,2.50
2022-12-05T05:08:30.281Z,2.60
2022-12-05T05:13:32.032Z,2.70
2022-12-05T05:18:34.253Z,2.60
2022-12-05T05:23:36.002Z,2.50
2022-12-05T05:28:37.723Z,2.70
2022-12-05T05:33:39.513Z,2.60
2022-12-05T05:38:45.631Z,2.50
2022-12-05T05:43:48.748Z,2.60
2022-12-05T05:48:51.519Z,2.60
2022-12-05T05:53:53.439Z,2.70
2022-12-05T05:58:57.562Z,2.70
2022-12-05T06:03:59.533Z,2.70
2022-12-05T06:09:01.408Z,2.70
2022-12-05T06:14:03.177Z,2.70
2022-12-05T06:19:04.938Z,2.60
2022-12-05T06:24:07.158Z,2.80
2022-12-05T06:29:09.010Z,2.70
2022-12-05T06:34:10.765Z,2.70
2022-12-05T06:39:12.593Z,2.60
2022-12-05T06:44:14.381Z,2.70
2022-12-05T06:49:16.510Z,2.80
2022-12-05T06:54:18.248Z,2.80
2022-12-05T06:59:20.067Z,2.80
2022-12-05T07:04:26.187Z,2.80
2022-12-05T07:10:01.355Z,2.80
2022-12-05T07:15:03.578Z,2.80
2022-12-05T07:20:07.276Z,2.90
2022-12-05T07:25:09.317Z,2.90
2022-12-05T07:30:11.387Z,2.90
2022-12-05T07:35:13.167Z,2.80
2022-12-05T07:40:15.178Z,2.70
2022-12-05T07:45:17.227Z,2.80
2022-12-05T07:50:19.034Z,2.80
2022-12-05T07:55:20.782Z,2.90
2022-12-05T08:00:22.901Z,2.90
2022-12-05T08:05:24.649Z,2.90
2022-12-05T08:10:26.605Z,2.90
2022-12-05T08:15:28.429Z,2.80
2022-12-05T08:20:30.668Z,2.90
2022-12-05T08:25:33.884Z,2.90
2022-12-05T08:30:35.800Z,2.90
2022-12-05T08:35:38.101Z,3.00
2022-12-05T08:40:39.961Z,3.00
2022-12-05T08:45:41.786Z,2.90
2022-12-05T08:50:43.717Z,2.90
2022-12-05T08:55:48.435Z,3.00
2022-12-05T09:00:50.244Z,3.10
2022-12-05T09:05:54.823Z,3.10
2022-12-05T09:10:56.768Z,3.10
2022-12-05T09:15:58.682Z,3.20
2022-12-05T09:21:06.768Z,3.10
2022-12-05T09:26:12.119Z,3.10
2022-12-05T09:31:16.913Z,3.20
2022-12-05T09:36:28.265Z,3.20
2022-12-05T09:42:10.892Z,3.30
2022-12-05T09:47:20.672Z,3.20
2022-12-05T09:52:38.466Z,3.30
2022-12-05T09:57:47.243Z,3.30
2022-12-05T10:03:10.099Z,3.30
2022-12-05T10:08:36.644Z,3.30
2022-12-05T10:13:41.783Z,3.40
2022-12-05T10:18:48.830Z,3.40
2022-12-05T10:23:58.307Z,3.30
2022-12-05T10:29:19.461Z,3.30
2022-12-05T10:34:30.916Z,3.40
2022-12-05T10:39:32.692Z,3.40
2022-12-05T10:44:34.868Z,3.30
2022-12-05T10:49:38.373Z,3.30
2022-12-05T10:55:04.092Z,3.40
2022-12-05T11:00:15.349Z,3.40
2022-12-05T11:05:28.220Z,3.30
2022-12-05T11:10:34.508Z,3.40
2022-12-05T11:15:48.424Z,3.50
2022-12-05T11:20:52.749Z,3.50
2022-12-05T11:25:58.727Z,3.50
2022-12-05T11:31:12.695Z,3.40
2022-12-05T11:36:23.623Z,3.50
2022-12-05T11:42:07.493Z,3.40
2022-12-05T11:47:21.878Z,3.40
2022-12-05T11:52:36.079Z,3.40
2022-12-05T11:58:08.393Z,3.50
2022-12-05T12:03:34.458Z,3.50
2022-12-05T12:09:34.712Z,3.50
2022-12-05T12:15:00.436Z,3.60
2022-12-05T12:20:16.779Z,3.60
2022-12-05T12:25:39.544Z,3.60
2022-12-05T12:30:56.223Z,3.70
2022-12-05T12:36:26.237Z,3.60
2022-12-05T12:41:54.826Z,3.60
2022-12-05T12:47:01.007Z,3.70
2022-12-05T12:52:11.557Z,3.60
2022-12-05T12:57:28.395Z,3.70
2022-12-05T13:02:45.417Z,3.70
2022-12-05T13:08:10.288Z,3.60
2022-12-05T13:13:22.391Z,3.60
2022-12-05T13:18:26.006Z,3.70
2022-12-05T13:23:31.587Z,3.70
2022-12-05T13:28:44.828Z,3.70
2022-12-05T13:33:51.139Z,3.70
2022-12-05T13:39:21.248Z,3.90
2022-12-05T13:44:57.247Z,3.80
2022-12-05T13:50:16.484Z,3.80
2022-12-05T13:55:39.106Z,3.80
2022-12-05T14:00:40.932Z,3.80
2022-12-05T14:05:50.611Z,3.70
2022-12-05T14:10:52.310Z,3.90
2022-12-05T14:16:10.673Z,3.90
2022-12-05T14:21:22.210Z,4.00
2022-12-05T14:26:39.834Z,4.00
2022-12-05T14:31:44.856Z,4.00
2022-12-05T14:37:00.141Z,4.00
2022-12-05T14:42:05.517Z,3.90
2022-12-05T14:47:07.399Z,4.00
2022-12-05T14:52:12.228Z,4.00
2022-12-05T14:57:16.423Z,3.90
2022-12-05T15:02:33.523Z,3.90
2022-12-05T15:07:38.875Z,3.90
2022-12-05T15:12:56.625Z,3.90
2022-12-05T15:18:08.734Z,3.90
2022-12-05T15:23:41.644Z,3.90
2022-12-05T15:29:08.300Z,3.80
2022-12-05T15:34:19.088Z,3.80
2022-12-05T15:39:25.730Z,3.90
2022-12-05T15:44:34.227Z,3.90
2022-12-05T15:49:39.195Z,3.90
2022-12-05T15:54:42.571Z,3.90
2022-12-05T16:00:02.076Z,3.90
2022-12-05T16:05:04.272Z,3.90
2022-12-05T16:10:06.952Z,3.80
2022-12-05T16:15:23.303Z,3.80
2022-12-05T16:20:37.085Z,3.70
2022-12-05T16:25:39.054Z,3.80
2022-12-05T16:30:41.131Z,3.80
2022-12-05T16:35:47.382Z,3.90
2022-12-05T16:40:49.110Z,3.80
2022-12-05T16:45:53.181Z,3.70
2022-12-05T16:51:13.396Z,3.80
2022-12-05T16:56:31.430Z,3.90
2022-12-05T17:01:38.695Z,3.90
2022-12-05T17:06:41.058Z,3.80
2022-12-05T17:11:46.007Z,3.80
2022-12-05T17:16:47.939Z,3.80
2022-12-05T17:21:49.823Z,3.90
2022-12-05T17:26:51.740Z,3.90
2022-12-05T17:31:53.639Z,4.00
2022-12-05T17:36:55.660Z,4.00
2022-12-05T17:41:57.496Z,4.10
2022-12-05T17:47:07.487Z,3.90
2022-12-05T17:52:27.151Z,4.00
2022-12-05T17:57:29.151Z,4.00
2022-12-05T18:02:31.116Z,4.10
2022-12-05T18:07:33.103Z,4.00
2022-12-05T18:12:36.024Z,4.00
2022-12-05T18:17:38.248Z,3.90
2022-12-05T18:22:40.055Z,4.00
2022-12-05T18:27:42.927Z,4.00
2022-12-05T18:32:45.078Z,4.00
2022-12-05T18:37:46.927Z,4.00
2022-12-05T18:42:52.300Z,4.00
2022-12-05T18:48:00.591Z,4.00
2022-12-05T18:53:11.897Z,4.00
2022-12-05T18:58:13.684Z,4.00
2022-12-05T19:03:15.443Z,4.10
2022-12-05T19:08:17.423Z,4.10
2022-12-05T19:13:20.864Z,4.10
2022-12-05T19:18:23.888Z,4.10
2022-12-05T19:23:26.197Z,4.10
2022-12-05T19:28:29.340Z,4.30
2022-12-05T19:33:33.771Z,4.20
2022-12-05T19:38:36.017Z,4.20
2022-12-05T19:43:38.889Z,4.20
2022-12-05T19:48:40.721Z,4.20
2022-12-05T19:53:44.182Z,4.20
2022-12-05T19:58:47.334Z,4.20
2022-12-05T20:03:52.209Z,4.20
2022-12-05T20:08:54.493Z,4.10
2022-12-05T20:13:57.916Z,4.10
2022-12-05T20:19:00.116Z,4.20
2022-12-05T20:24:03.364Z,4.20
2022-12-05T20:29:06.228Z,4.30
2022-12-05T20:34:10.765Z,4.30
2022-12-05T20:39:18.080Z,4.30
2022-12-05T20:44:20.040Z,4.40
2022-12-05T20:49:21.886Z,4.40
2022-12-05T20:54:23.857Z,4.30
2022-12-05T20:59:25.775Z,4.40
2022-12-05T21:04:27.527Z,4.40
2022-12-05T21:09:31.735Z,4.40
2022-12-05T21:14:34.424Z,4.40
2022-12-05T21:19:36.343Z,4.40
2022-12-05T21:24:38.276Z,4.50
2022-12-05T21:29:40.065Z,4.50
2022-12-05T21:34:41.907Z,4.50
2022-12-05T21:39:43.633Z,4.60
2022-12-05T21:44:45.798Z,4.50
2022-12-05T21:49:47.684Z,4.60
2022-12-05T21:54:49.569Z,4.60
2022-12-05T21:59:51.325Z,4.60
2022-12-05T22:04:53.064Z,4.70
2022-12-05T22:09:54.841Z,4.70
2022-12-05T22:14:56.674Z,4.70
2022-12-05T22:19:58.748Z,4.80
2022-12-05T22:25:01.024Z,4.80
2022-12-05T22:30:03.081Z,4.80
2022-12-05T22:35:05.018Z,4.80
2022-12-05T22:40:07.469Z,4.80
2022-12-05T22:45:09.909Z,4.80
2022-12-05T22:50:12.145Z,4.90
2022-12-05T22:55:13.933Z,4.80
2022-12-05T23:00:15.984Z,4.80
2022-12-05T23:05:17.879Z,4.80
2022-12-05T23:10:19.846Z,4.90
2022-12-05T23:15:21.735Z,4.90
2022-12-05T23:20:23.674Z,4.90
2022-12-05T23:25:26.352Z,4.90
2022-12-05T23:30:28.333Z,4.90
2022-12-05T23:35:30.187Z,4.90
2022-12-05T23:40:32.023Z,4.90
2022-12-05T23:45:34.196Z,4.90
2022-12-05T23:50:36.455Z,4.90
2022-12-05T23:55:38.328Z,4.90
